sensor_id;sensor_type;location;lat;lon;timestamp;P1;durP1;ratioP1;P2;durP2;ratioP2
579;SDS011;276;48.392;9.950;2022-08-19T00:00:37;22.93;;;21.13;;
579;SDS011;276;48.392;9.950;2022-08-19T00:03:04;23.70;;;21.93;;
579;SDS011;276;48.392;9.950;2022-08-19T00:05:31;21.10;;;19.53;;
579;SDS011;276;48.392;9.950;2022-08-19T00:07:59;24.77;;;22.90;;
579;SDS011;276;48.392;9.950;2022-08-19T00:10:25;22.60;;;20.90;;
579;SDS011;276;48.392;9.950;2022-08-19T00:12:51;24.93;;;23.03;;
579;SDS011;276;48.392;9.950;2022-08-19T00:15:20;23.60;;;21.80;;
579;SDS011;276;48.392;9.950;2022-08-19T00:17:47;23.77;;;21.87;;
579;SDS011;276;48.392;9.950;2022-08-19T00:20:14;22.67;;;20.87;;
579;SDS011;276;48.392;9.950;2022-08-19T00:22:43;25.67;;;23.60;;
579;SDS011;276;48.392;9.950;2022-08-19T00:25:12;25.20;;;23.20;;
579;SDS011;276;48.392;9.950;2022-08-19T00:27:38;25.37;;;23.27;;
579;SDS011;276;48.392;9.950;2022-08-19T00:30:07;23.67;;;21.87;;
579;SDS011;276;48.392;9.950;2022-08-19T00:32:36;27.10;;;24.90;;
579;SDS011;276;48.392;9.950;2022-08-19T00:35:06;22.83;;;21.13;;
579;SDS011;276;48.392;9.950;2022-08-19T00:37:32;24.60;;;22.77;;
579;SDS011;276;48.392;9.950;2022-08-19T00:40:00;25.90;;;23.60;;
579;SDS011;276;48.392;9.950;2022-08-19T00:42:27;24.27;;;22.37;;
579;SDS011;276;48.392;9.950;2022-08-19T00:44:53;24.83;;;22.87;;
579;SDS011;276;48.392;9.950;2022-08-19T00:47:21;25.13;;;23.33;;
579;SDS011;276;48.392;9.950;2022-08-19T00:49:47;27.00;;;25.00;;
579;SDS011;276;48.392;9.950;2022-08-19T00:52:22;26.90;;;24.77;;
579;SDS011;276;48.392;9.950;2022-08-19T00:54:53;25.80;;;23.90;;
579;SDS011;276;48.392;9.950;2022-08-19T00:57:22;25.83;;;23.77;;
579;SDS011;276;48.392;9.950;2022-08-19T01:00:04;24.80;;;22.80;;
579;SDS011;276;48.392;9.950;2022-08-19T01:02:32;24.20;;;22.40;;
579;SDS011;276;48.392;9.950;2022-08-19T01:04:58;25.27;;;23.40;;
579;SDS011;276;48.392;9.950;2022-08-19T01:07:26;27.33;;;25.33;;
579;SDS011;276;48.392;9.950;2022-08-19T01:09:52;24.47;;;22.50;;
579;SDS011;276;48.392;9.950;2022-08-19T01:12:18;26.07;;;24.20;;
579;SDS011;276;48.392;9.950;2022-08-19T01:14:45;27.30;;;25.30;;
579;SDS011;276;48.392;9.950;2022-08-19T01:17:11;26.63;;;24.50;;
579;SDS011;276;48.392;9.950;2022-08-19T01:19:39;26.23;;;24.20;;
579;SDS011;276;48.392;9.950;2022-08-19T01:22:29;25.07;;;23.17;;
579;SDS011;276;48.392;9.950;2022-08-19T01:24:57;25.00;;;23.00;;
579;SDS011;276;48.392;9.950;2022-08-19T01:27:25;27.87;;;25.23;;
579;SDS011;276;48.392;9.950;2022-08-19T01:29:51;24.60;;;22.80;;
579;SDS011;276;48.392;9.950;2022-08-19T01:32:21;27.07;;;25.07;;
579;SDS011;276;48.392;9.950;2022-08-19T01:34:49;26.17;;;24.07;;
579;SDS011;276;48.392;9.950;2022-08-19T01:37:15;26.20;;;24.00;;
579;SDS011;276;48.392;9.950;2022-08-19T01:39:41;27.13;;;25.00;;
579;SDS011;276;48.392;9.950;2022-08-19T01:42:08;24.17;;;22.27;;
579;SDS011;276;48.392;9.950;2022-08-19T01:44:37;28.00;;;25.90;;
579;SDS011;276;48.392;9.950;2022-08-19T01:47:05;26.23;;;24.33;;
579;SDS011;276;48.392;9.950;2022-08-19T01:49:32;29.37;;;26.57;;
579;SDS011;276;48.392;9.950;2022-08-19T01:51:58;27.93;;;25.80;;
579;SDS011;276;48.392;9.950;2022-08-19T01:54:25;27.10;;;24.97;;
579;SDS011;276;48.392;9.950;2022-08-19T01:56:51;28.33;;;26.00;;
579;SDS011;276;48.392;9.950;2022-08-19T01:59:20;29.03;;;26.63;;
579;SDS011;276;48.392;9.950;2022-08-19T02:01:48;27.33;;;24.90;;
579;SDS011;276;48.392;9.950;2022-08-19T02:04:14;29.27;;;26.87;;
579;SDS011;276;48.392;9.950;2022-08-19T02:06:42;30.30;;;27.70;;
579;SDS011;276;48.392;9.950;2022-08-19T02:09:08;28.60;;;26.50;;
579;SDS011;276;48.392;9.950;2022-08-19T02:11:34;26.30;;;24.00;;
579;SDS011;276;48.392;9.950;2022-08-19T02:14:02;29.10;;;26.80;;
579;SDS011;276;48.392;9.950;2022-08-19T02:16:31;30.83;;;28.37;;
579;SDS011;276;48.392;9.950;2022-08-19T02:19:00;29.17;;;26.63;;
579;SDS011;276;48.392;9.950;2022-08-19T02:21:28;29.83;;;27.23;;
579;SDS011;276;48.392;9.950;2022-08-19T02:23:57;30.10;;;27.70;;
579;SDS011;276;48.392;9.950;2022-08-19T02:26:23;27.03;;;24.83;;
579;SDS011;276;48.392;9.950;2022-08-19T02:28:53;27.83;;;25.63;;
579;SDS011;276;48.392;9.950;2022-08-19T02:31:24;29.70;;;27.30;;
579;SDS011;276;48.392;9.950;2022-08-19T02:33:50;29.53;;;27.17;;
579;SDS011;276;48.392;9.950;2022-08-19T02:36:19;30.63;;;28.10;;
579;SDS011;276;48.392;9.950;2022-08-19T02:38:45;30.20;;;27.60;;
579;SDS011;276;48.392;9.950;2022-08-19T02:41:15;29.20;;;26.50;;
579;SDS011;276;48.392;9.950;2022-08-19T02:43:46;28.70;;;26.40;;
579;SDS011;276;48.392;9.950;2022-08-19T02:46:16;29.30;;;26.73;;
579;SDS011;276;48.392;9.950;2022-08-19T02:48:46;29.30;;;27.00;;
579;SDS011;276;48.392;9.950;2022-08-19T02:51:17;29.80;;;27.40;;
579;SDS011;276;48.392;9.950;2022-08-19T02:53:47;28.63;;;26.23;;
579;SDS011;276;48.392;9.950;2022-08-19T02:56:12;29.20;;;26.77;;
579;SDS011;276;48.392;9.950;2022-08-19T02:58:41;27.80;;;25.37;;
579;SDS011;276;48.392;9.950;2022-08-19T03:01:07;28.50;;;26.10;;
579;SDS011;276;48.392;9.950;2022-08-19T03:03:35;27.70;;;25.30;;
579;SDS011;276;48.392;9.950;2022-08-19T03:06:08;26.90;;;24.70;;
579;SDS011;276;48.392;9.950;2022-08-19T03:08:38;29.63;;;27.40;;
579;SDS011;276;48.392;9.950;2022-08-19T03:11:05;28.10;;;25.80;;
579;SDS011;276;48.392;9.950;2022-08-19T03:13:33;29.30;;;27.00;;
579;SDS011;276;48.392;9.950;2022-08-19T03:15:58;28.63;;;26.37;;
579;SDS011;276;48.392;9.950;2022-08-19T03:18:24;30.03;;;27.23;;
579;SDS011;276;48.392;9.950;2022-08-19T03:20:52;30.30;;;27.70;;
579;SDS011;276;48.392;9.950;2022-08-19T03:23:19;27.80;;;25.70;;
579;SDS011;276;48.392;9.950;2022-08-19T03:25:49;30.07;;;27.70;;
579;SDS011;276;48.392;9.950;2022-08-19T03:28:16;29.37;;;26.63;;
579;SDS011;276;48.392;9.950;2022-08-19T03:30:42;28.97;;;26.60;;
579;SDS011;276;48.392;9.950;2022-08-19T03:33:23;27.67;;;25.37;;
579;SDS011;276;48.392;9.950;2022-08-19T03:35:59;30.30;;;27.83;;
579;SDS011;276;48.392;9.950;2022-08-19T03:38:28;30.20;;;27.70;;
579;SDS011;276;48.392;9.950;2022-08-19T03:40:54;31.97;;;29.27;;
579;SDS011;276;48.392;9.950;2022-08-19T03:43:20;31.63;;;28.93;;
579;SDS011;276;48.392;9.950;2022-08-19T03:45:46;30.33;;;27.83;;
579;SDS011;276;48.392;9.950;2022-08-19T03:48:13;28.47;;;26.07;;
579;SDS011;276;48.392;9.950;2022-08-19T03:50:41;30.40;;;27.63;;
579;SDS011;276;48.392;9.950;2022-08-19T03:53:09;30.57;;;27.90;;
579;SDS011;276;48.392;9.950;2022-08-19T03:55:39;31.33;;;28.53;;
579;SDS011;276;48.392;9.950;2022-08-19T03:58:06;30.83;;;28.23;;
579;SDS011;276;48.392;9.950;2022-08-19T04:00:41;30.40;;;27.93;;
579;SDS011;276;48.392;9.950;2022-08-19T04:03:07;31.90;;;29.20;;
579;SDS011;276;48.392;9.950;2022-08-19T04:05:35;28.67;;;26.17;;
579;SDS011;276;48.392;9.950;2022-08-19T04:08:04;33.70;;;30.90;;
579;SDS011;276;48.392;9.950;2022-08-19T04:10:30;33.50;;;30.60;;
579;SDS011;276;48.392;9.950;2022-08-19T04:13:00;32.30;;;29.53;;
579;SDS011;276;48.392;9.950;2022-08-19T04:15:26;32.40;;;29.60;;
579;SDS011;276;48.392;9.950;2022-08-19T04:18:01;34.40;;;31.27;;
579;SDS011;276;48.392;9.950;2022-08-19T04:20:32;36.07;;;32.77;;
579;SDS011;276;48.392;9.950;2022-08-19T04:23:04;31.90;;;29.20;;
579;SDS011;276;48.392;9.950;2022-08-19T04:25:42;32.53;;;29.63;;
579;SDS011;276;48.392;9.950;2022-08-19T04:28:09;31.93;;;29.23;;
579;SDS011;276;48.392;9.950;2022-08-19T04:30:43;31.77;;;28.90;;
579;SDS011;276;48.392;9.950;2022-08-19T04:33:11;31.00;;;28.40;;
579;SDS011;276;48.392;9.950;2022-08-19T04:35:39;31.07;;;28.57;;
579;SDS011;276;48.392;9.950;2022-08-19T04:38:07;31.50;;;28.80;;
579;SDS011;276;48.392;9.950;2022-08-19T04:40:33;34.23;;;31.30;;
579;SDS011;276;48.392;9.950;2022-08-19T04:43:22;30.43;;;27.87;;
579;SDS011;276;48.392;9.950;2022-08-19T04:45:50;32.50;;;29.67;;
579;SDS011;276;48.392;9.950;2022-08-19T04:48:16;32.13;;;29.13;;
579;SDS011;276;48.392;9.950;2022-08-19T04:50:51;31.60;;;28.80;;
579;SDS011;276;48.392;9.950;2022-08-19T04:53:22;30.43;;;27.97;;
579;SDS011;276;48.392;9.950;2022-08-19T04:56:16;32.60;;;29.67;;
579;SDS011;276;48.392;9.950;2022-08-19T04:58:42;32.67;;;29.77;;
579;SDS011;276;48.392;9.950;2022-08-19T05:01:20;30.87;;;28.27;;
579;SDS011;276;48.392;9.950;2022-08-19T05:03:51;33.67;;;30.77;;
579;SDS011;276;48.392;9.950;2022-08-19T05:06:18;33.77;;;30.53;;
579;SDS011;276;48.392;9.950;2022-08-19T05:08:45;32.63;;;29.90;;
579;SDS011;276;48.392;9.950;2022-08-19T05:11:13;34.53;;;31.53;;
579;SDS011;276;48.392;9.950;2022-08-19T05:14:02;32.27;;;29.43;;
579;SDS011;276;48.392;9.950;2022-08-19T05:16:28;30.30;;;27.80;;
579;SDS011;276;48.392;9.950;2022-08-19T05:18:58;34.33;;;31.30;;
579;SDS011;276;48.392;9.950;2022-08-19T05:21:43;32.87;;;29.87;;
579;SDS011;276;48.392;9.950;2022-08-19T05:24:28;35.00;;;31.80;;
579;SDS011;276;48.392;9.950;2022-08-19T05:26:54;35.10;;;31.80;;
579;SDS011;276;48.392;9.950;2022-08-19T05:29:22;31.10;;;28.40;;
579;SDS011;276;48.392;9.950;2022-08-19T05:31:48;32.07;;;29.17;;
579;SDS011;276;48.392;9.950;2022-08-19T05:34:17;33.03;;;30.03;;
579;SDS011;276;48.392;9.950;2022-08-19T05:36:46;31.50;;;28.80;;
579;SDS011;276;48.392;9.950;2022-08-19T05:39:15;31.33;;;28.73;;
579;SDS011;276;48.392;9.950;2022-08-19T05:41:46;30.50;;;28.00;;
579;SDS011;276;48.392;9.950;2022-08-19T05:44:22;31.37;;;28.70;;
579;SDS011;276;48.392;9.950;2022-08-19T05:46:50;32.67;;;29.40;;
579;SDS011;276;48.392;9.950;2022-08-19T05:49:19;32.27;;;29.53;;
579;SDS011;276;48.392;9.950;2022-08-19T05:51:46;32.40;;;29.60;;
579;SDS011;276;48.392;9.950;2022-08-19T05:54:12;30.90;;;27.93;;
579;SDS011;276;48.392;9.950;2022-08-19T05:56:39;30.93;;;28.10;;
579;SDS011;276;48.392;9.950;2022-08-19T05:59:09;31.80;;;29.10;;
579;SDS011;276;48.392;9.950;2022-08-19T06:01:38;28.40;;;25.90;;
579;SDS011;276;48.392;9.950;2022-08-19T06:04:06;30.53;;;27.93;;
579;SDS011;276;48.392;9.950;2022-08-19T06:06:32;32.10;;;29.40;;
579;SDS011;276;48.392;9.950;2022-08-19T06:09:00;30.77;;;28.37;;
579;SDS011;276;48.392;9.950;2022-08-19T06:14:09;30.63;;;27.87;;
579;SDS011;276;48.392;9.950;2022-08-19T06:16:38;31.23;;;28.53;;
579;SDS011;276;48.392;9.950;2022-08-19T06:19:07;32.60;;;29.50;;
579;SDS011;276;48.392;9.950;2022-08-19T06:21:38;32.63;;;29.63;;
579;SDS011;276;48.392;9.950;2022-08-19T06:24:10;32.03;;;29.40;;
579;SDS011;276;48.392;9.950;2022-08-19T06:26:40;33.07;;;30.17;;
579;SDS011;276;48.392;9.950;2022-08-19T06:29:07;33.23;;;30.30;;
579;SDS011;276;48.392;9.950;2022-08-19T06:31:34;35.07;;;32.10;;
579;SDS011;276;48.392;9.950;2022-08-19T06:34:01;32.27;;;29.43;;
579;SDS011;276;48.392;9.950;2022-08-19T06:36:35;33.13;;;30.10;;
579;SDS011;276;48.392;9.950;2022-08-19T06:39:07;30.47;;;27.83;;
579;SDS011;276;48.392;9.950;2022-08-19T06:41:39;31.50;;;28.50;;
579;SDS011;276;48.392;9.950;2022-08-19T06:44:13;34.87;;;31.67;;
579;SDS011;276;48.392;9.950;2022-08-19T06:46:41;33.60;;;30.60;;
579;SDS011;276;48.392;9.950;2022-08-19T06:49:08;31.77;;;29.10;;
579;SDS011;276;48.392;9.950;2022-08-19T06:51:38;34.30;;;31.20;;
579;SDS011;276;48.392;9.950;2022-08-19T06:54:06;34.33;;;31.27;;
579;SDS011;276;48.392;9.950;2022-08-19T06:56:32;31.17;;;28.40;;
579;SDS011;276;48.392;9.950;2022-08-19T06:59:04;34.60;;;31.33;;
579;SDS011;276;48.392;9.950;2022-08-19T07:01:34;33.50;;;30.47;;
579;SDS011;276;48.392;9.950;2022-08-19T07:04:02;32.13;;;29.23;;
579;SDS011;276;48.392;9.950;2022-08-19T07:06:29;33.53;;;30.63;;
579;SDS011;276;48.392;9.950;2022-08-19T07:08:56;33.70;;;30.50;;
579;SDS011;276;48.392;9.950;2022-08-19T07:11:25;36.47;;;32.80;;
579;SDS011;276;48.392;9.950;2022-08-19T07:13:51;35.30;;;32.17;;
579;SDS011;276;48.392;9.950;2022-08-19T07:16:18;30.17;;;27.50;;
579;SDS011;276;48.392;9.950;2022-08-19T07:18:45;34.50;;;31.50;;
579;SDS011;276;48.392;9.950;2022-08-19T07:21:16;34.50;;;31.60;;
579;SDS011;276;48.392;9.950;2022-08-19T07:23:43;35.70;;;32.20;;
579;SDS011;276;48.392;9.950;2022-08-19T07:28:42;31.80;;;28.83;;
579;SDS011;276;48.392;9.950;2022-08-19T07:31:13;32.57;;;29.70;;
579;SDS011;276;48.392;9.950;2022-08-19T07:33:43;30.47;;;27.73;;
579;SDS011;276;48.392;9.950;2022-08-19T07:36:12;31.47;;;28.67;;
579;SDS011;276;48.392;9.950;2022-08-19T07:38:40;33.27;;;30.27;;
579;SDS011;276;48.392;9.950;2022-08-19T07:41:10;29.07;;;26.37;;
579;SDS011;276;48.392;9.950;2022-08-19T07:43:40;32.57;;;29.70;;
579;SDS011;276;48.392;9.950;2022-08-19T07:46:09;30.87;;;28.03;;
579;SDS011;276;48.392;9.950;2022-08-19T07:48:35;30.47;;;27.77;;
579;SDS011;276;48.392;9.950;2022-08-19T07:51:04;30.47;;;27.63;;
579;SDS011;276;48.392;9.950;2022-08-19T07:53:33;29.10;;;26.60;;
579;SDS011;276;48.392;9.950;2022-08-19T07:56:03;31.07;;;28.20;;
579;SDS011;276;48.392;9.950;2022-08-19T07:58:31;30.53;;;28.00;;
579;SDS011;276;48.392;9.950;2022-08-19T08:00:58;29.70;;;27.20;;
579;SDS011;276;48.392;9.950;2022-08-19T08:03:25;31.53;;;28.33;;
579;SDS011;276;48.392;9.950;2022-08-19T08:06:11;27.33;;;24.93;;
579;SDS011;276;48.392;9.950;2022-08-19T08:08:57;29.53;;;27.00;;
579;SDS011;276;48.392;9.950;2022-08-19T08:11:41;26.30;;;24.00;;
579;SDS011;276;48.392;9.950;2022-08-19T08:14:20;26.77;;;24.17;;
579;SDS011;276;48.392;9.950;2022-08-19T08:16:48;26.83;;;24.43;;
579;SDS011;276;48.392;9.950;2022-08-19T08:19:19;26.67;;;24.13;;
579;SDS011;276;48.392;9.950;2022-08-19T08:21:48;26.47;;;24.13;;
579;SDS011;276;48.392;9.950;2022-08-19T08:24:15;26.10;;;23.70;;
579;SDS011;276;48.392;9.950;2022-08-19T08:26:45;29.57;;;26.73;;
579;SDS011;276;48.392;9.950;2022-08-19T08:29:11;26.90;;;24.50;;
579;SDS011;276;48.392;9.950;2022-08-19T08:31:37;26.57;;;24.23;;
579;SDS011;276;48.392;9.950;2022-08-19T08:34:04;26.57;;;24.37;;
579;SDS011;276;48.392;9.950;2022-08-19T08:36:36;27.60;;;25.20;;
579;SDS011;276;48.392;9.950;2022-08-19T08:39:06;26.03;;;23.73;;
579;SDS011;276;48.392;9.950;2022-08-19T08:41:57;27.60;;;25.30;;
579;SDS011;276;48.392;9.950;2022-08-19T08:47:02;27.20;;;24.40;;
579;SDS011;276;48.392;9.950;2022-08-19T08:52:23;25.50;;;23.30;;
579;SDS011;276;48.392;9.950;2022-08-19T08:54:55;26.80;;;24.67;;
579;SDS011;276;48.392;9.950;2022-08-19T08:57:35;28.00;;;25.60;;
579;SDS011;276;48.392;9.950;2022-08-19T09:00:19;27.60;;;25.20;;
579;SDS011;276;48.392;9.950;2022-08-19T09:02:49;29.57;;;27.00;;
579;SDS011;276;48.392;9.950;2022-08-19T09:05:14;25.83;;;23.63;;
579;SDS011;276;48.392;9.950;2022-08-19T09:07:46;26.80;;;24.23;;
579;SDS011;276;48.392;9.950;2022-08-19T09:10:31;27.33;;;24.83;;
579;SDS011;276;48.392;9.950;2022-08-19T09:16:06;25.97;;;23.57;;
579;SDS011;276;48.392;9.950;2022-08-19T09:18:41;25.97;;;23.57;;
579;SDS011;276;48.392;9.950;2022-08-19T09:21:07;25.40;;;23.40;;
579;SDS011;276;48.392;9.950;2022-08-19T09:23:34;26.83;;;24.40;;
579;SDS011;276;48.392;9.950;2022-08-19T09:26:00;26.53;;;24.10;;
579;SDS011;276;48.392;9.950;2022-08-19T09:28:26;31.00;;;28.30;;
579;SDS011;276;48.392;9.950;2022-08-19T09:30:53;26.43;;;24.13;;
579;SDS011;276;48.392;9.950;2022-08-19T09:33:19;27.47;;;25.07;;
579;SDS011;276;48.392;9.950;2022-08-19T09:35:47;27.90;;;25.43;;
579;SDS011;276;48.392;9.950;2022-08-19T09:38:13;26.40;;;24.10;;
579;SDS011;276;48.392;9.950;2022-08-19T09:40:38;28.60;;;26.13;;
579;SDS011;276;48.392;9.950;2022-08-19T09:43:06;27.83;;;25.53;;
579;SDS011;276;48.392;9.950;2022-08-19T09:45:32;28.70;;;26.10;;
579;SDS011;276;48.392;9.950;2022-08-19T09:47:58;27.13;;;25.00;;
579;SDS011;276;48.392;9.950;2022-08-19T09:50:24;25.43;;;23.23;;
579;SDS011;276;48.392;9.950;2022-08-19T09:52:49;28.13;;;25.80;;
579;SDS011;276;48.392;9.950;2022-08-19T09:55:17;26.17;;;24.07;;
579;SDS011;276;48.392;9.950;2022-08-19T09:57:45;25.50;;;23.27;;
579;SDS011;276;48.392;9.950;2022-08-19T10:00:11;25.33;;;22.90;;
579;SDS011;276;48.392;9.950;2022-08-19T10:02:37;27.33;;;24.97;;
579;SDS011;276;48.392;9.950;2022-08-19T10:05:07;25.80;;;23.53;;
579;SDS011;276;48.392;9.950;2022-08-19T10:07:51;24.60;;;22.60;;
579;SDS011;276;48.392;9.950;2022-08-19T10:10:17;26.80;;;24.50;;
579;SDS011;276;48.392;9.950;2022-08-19T10:12:45;25.20;;;22.80;;
579;SDS011;276;48.392;9.950;2022-08-19T10:15:12;28.77;;;26.17;;
579;SDS011;276;48.392;9.950;2022-08-19T10:17:37;27.63;;;25.40;;
579;SDS011;276;48.392;9.950;2022-08-19T10:20:06;31.10;;;28.50;;
579;SDS011;276;48.392;9.950;2022-08-19T10:22:34;28.57;;;26.17;;
579;SDS011;276;48.392;9.950;2022-08-19T10:25:02;29.37;;;26.77;;
579;SDS011;276;48.392;9.950;2022-08-19T10:27:31;29.23;;;26.73;;
579;SDS011;276;48.392;9.950;2022-08-19T10:29:59;31.47;;;28.60;;
579;SDS011;276;48.392;9.950;2022-08-19T10:32:24;31.20;;;28.40;;
579;SDS011;276;48.392;9.950;2022-08-19T10:34:50;31.77;;;28.57;;
579;SDS011;276;48.392;9.950;2022-08-19T10:37:17;31.07;;;28.40;;
579;SDS011;276;48.392;9.950;2022-08-19T10:39:45;33.07;;;30.00;;
579;SDS011;276;48.392;9.950;2022-08-19T10:42:12;29.30;;;26.80;;
579;SDS011;276;48.392;9.950;2022-08-19T10:44:42;31.17;;;28.47;;
579;SDS011;276;48.392;9.950;2022-08-19T10:47:07;31.50;;;28.63;;
579;SDS011;276;48.392;9.950;2022-08-19T10:49:36;30.90;;;28.20;;
579;SDS011;276;48.392;9.950;2022-08-19T10:52:24;29.10;;;26.57;;
579;SDS011;276;48.392;9.950;2022-08-19T10:54:59;32.43;;;29.87;;
579;SDS011;276;48.392;9.950;2022-08-19T10:57:43;31.27;;;28.47;;
579;SDS011;276;48.392;9.950;2022-08-19T11:00:10;30.13;;;27.50;;
579;SDS011;276;48.392;9.950;2022-08-19T11:02:38;30.67;;;28.13;;
579;SDS011;276;48.392;9.950;2022-08-19T11:05:04;30.17;;;27.33;;
579;SDS011;276;48.392;9.950;2022-08-19T11:07:31;29.03;;;26.53;;
579;SDS011;276;48.392;9.950;2022-08-19T11:09:57;29.53;;;27.03;;
579;SDS011;276;48.392;9.950;2022-08-19T11:12:23;29.60;;;27.20;;
579;SDS011;276;48.392;9.950;2022-08-19T11:14:49;30.50;;;27.90;;
579;SDS011;276;48.392;9.950;2022-08-19T11:17:17;29.63;;;26.93;;
579;SDS011;276;48.392;9.950;2022-08-19T11:19:43;27.30;;;25.00;;
579;SDS011;276;48.392;9.950;2022-08-19T11:22:13;28.80;;;26.27;;
579;SDS011;276;48.392;9.950;2022-08-19T11:24:41;27.90;;;25.47;;
579;SDS011;276;48.392;9.950;2022-08-19T11:27:09;30.93;;;28.23;;
579;SDS011;276;48.392;9.950;2022-08-19T11:29:38;29.63;;;27.23;;
579;SDS011;276;48.392;9.950;2022-08-19T11:32:07;29.87;;;27.20;;
579;SDS011;276;48.392;9.950;2022-08-19T11:34:37;28.63;;;26.27;;
579;SDS011;276;48.392;9.950;2022-08-19T11:37:07;26.97;;;24.57;;
579;SDS011;276;48.392;9.950;2022-08-19T11:39:34;27.93;;;25.63;;
579;SDS011;276;48.392;9.950;2022-08-19T11:42:01;29.90;;;27.40;;
579;SDS011;276;48.392;9.950;2022-08-19T11:44:49;28.87;;;26.30;;
579;SDS011;276;48.392;9.950;2022-08-19T11:47:15;27.70;;;25.40;;
579;SDS011;276;48.392;9.950;2022-08-19T11:49:41;29.27;;;26.80;;
579;SDS011;276;48.392;9.950;2022-08-19T11:52:07;28.90;;;26.07;;
579;SDS011;276;48.392;9.950;2022-08-19T11:54:34;28.77;;;26.30;;
579;SDS011;276;48.392;9.950;2022-08-19T11:57:03;28.90;;;26.70;;
579;SDS011;276;48.392;9.950;2022-08-19T11:59:29;27.23;;;24.93;;
579;SDS011;276;48.392;9.950;2022-08-19T12:01:57;27.47;;;25.20;;
579;SDS011;276;48.392;9.950;2022-08-19T12:04:25;28.23;;;25.73;;
579;SDS011;276;48.392;9.950;2022-08-19T12:06:53;26.53;;;24.20;;
579;SDS011;276;48.392;9.950;2022-08-19T12:09:18;26.23;;;24.07;;
579;SDS011;276;48.392;9.950;2022-08-19T12:11:44;28.23;;;26.00;;
579;SDS011;276;48.392;9.950;2022-08-19T12:14:11;25.10;;;22.90;;
579;SDS011;276;48.392;9.950;2022-08-19T12:16:38;25.07;;;22.87;;
579;SDS011;276;48.392;9.950;2022-08-19T12:19:08;22.33;;;20.50;;
579;SDS011;276;48.392;9.950;2022-08-19T12:21:34;24.43;;;22.30;;
579;SDS011;276;48.392;9.950;2022-08-19T12:24:03;25.60;;;23.50;;
579;SDS011;276;48.392;9.950;2022-08-19T12:26:33;21.70;;;20.00;;
579;SDS011;276;48.392;9.950;2022-08-19T12:29:02;24.70;;;22.70;;
579;SDS011;276;48.392;9.950;2022-08-19T12:31:31;22.97;;;21.07;;
579;SDS011;276;48.392;9.950;2022-08-19T12:33:59;21.03;;;19.43;;
579;SDS011;276;48.392;9.950;2022-08-19T12:36:27;22.93;;;21.07;;
579;SDS011;276;48.392;9.950;2022-08-19T12:38:57;23.10;;;21.20;;
579;SDS011;276;48.392;9.950;2022-08-19T12:41:24;20.33;;;18.67;;
579;SDS011;276;48.392;9.950;2022-08-19T12:43:50;20.80;;;19.20;;
579;SDS011;276;48.392;9.950;2022-08-19T12:46:16;20.57;;;19.07;;
579;SDS011;276;48.392;9.950;2022-08-19T12:48:45;15.93;;;14.73;;
579;SDS011;276;48.392;9.950;2022-08-19T12:51:14;13.97;;;12.97;;
579;SDS011;276;48.392;9.950;2022-08-19T12:53:44;12.07;;;11.17;;
579;SDS011;276;48.392;9.950;2022-08-19T12:56:11;10.83;;;10.13;;
579;SDS011;276;48.392;9.950;2022-08-19T12:58:39;10.70;;;9.90;;
579;SDS011;276;48.392;9.950;2022-08-19T13:01:15;11.00;;;10.10;;
579;SDS011;276;48.392;9.950;2022-08-19T13:03:44;9.67;;;8.93;;
579;SDS011;276;48.392;9.950;2022-08-19T13:06:13;10.60;;;9.90;;
579;SDS011;276;48.392;9.950;2022-08-19T13:08:43;10.90;;;10.00;;
579;SDS011;276;48.392;9.950;2022-08-19T13:11:14;9.20;;;8.60;;
579;SDS011;276;48.392;9.950;2022-08-19T13:13:46;9.13;;;8.40;;
579;SDS011;276;48.392;9.950;2022-08-19T13:16:13;8.47;;;7.87;;
579;SDS011;276;48.392;9.950;2022-08-19T13:18:44;8.27;;;7.77;;
579;SDS011;276;48.392;9.950;2022-08-19T13:21:12;7.23;;;6.73;;
579;SDS011;276;48.392;9.950;2022-08-19T13:23:38;7.13;;;6.63;;
579;SDS011;276;48.392;9.950;2022-08-19T13:26:06;6.10;;;5.70;;
579;SDS011;276;48.392;9.950;2022-08-19T13:28:35;5.53;;;5.13;;
579;SDS011;276;48.392;9.950;2022-08-19T13:31:20;5.50;;;5.10;;
579;SDS011;276;48.392;9.950;2022-08-19T13:34:06;6.40;;;6.00;;
579;SDS011;276;48.392;9.950;2022-08-19T13:36:35;6.70;;;6.20;;
579;SDS011;276;48.392;9.950;2022-08-19T13:39:04;7.40;;;6.70;;
579;SDS011;276;48.392;9.950;2022-08-19T13:41:34;7.90;;;7.20;;
579;SDS011;276;48.392;9.950;2022-08-19T13:44:01;8.30;;;7.60;;
579;SDS011;276;48.392;9.950;2022-08-19T13:46:27;9.23;;;8.43;;
579;SDS011;276;48.392;9.950;2022-08-19T13:48:54;10.50;;;9.70;;
579;SDS011;276;48.392;9.950;2022-08-19T13:51:20;9.00;;;8.30;;
579;SDS011;276;48.392;9.950;2022-08-19T13:53:48;9.90;;;9.20;;
579;SDS011;276;48.392;9.950;2022-08-19T13:56:17;10.40;;;9.70;;
579;SDS011;276;48.392;9.950;2022-08-19T13:58:46;10.80;;;10.00;;
579;SDS011;276;48.392;9.950;2022-08-19T14:01:12;10.07;;;9.13;;
579;SDS011;276;48.392;9.950;2022-08-19T14:03:43;11.10;;;10.30;;
579;SDS011;276;48.392;9.950;2022-08-19T14:06:11;10.23;;;9.53;;
579;SDS011;276;48.392;9.950;2022-08-19T14:08:36;11.17;;;10.27;;
579;SDS011;276;48.392;9.950;2022-08-19T14:11:04;11.50;;;10.70;;
579;SDS011;276;48.392;9.950;2022-08-19T14:13:32;11.23;;;10.43;;
579;SDS011;276;48.392;9.950;2022-08-19T14:15:59;11.97;;;10.67;;
579;SDS011;276;48.392;9.950;2022-08-19T14:18:24;12.30;;;11.30;;
579;SDS011;276;48.392;9.950;2022-08-19T14:20:50;11.83;;;11.03;;
579;SDS011;276;48.392;9.950;2022-08-19T14:23:16;12.13;;;11.23;;
579;SDS011;276;48.392;9.950;2022-08-19T14:25:44;12.77;;;11.87;;
579;SDS011;276;48.392;9.950;2022-08-19T14:28:11;11.70;;;10.80;;
579;SDS011;276;48.392;9.950;2022-08-19T14:30:41;12.90;;;11.97;;
579;SDS011;276;48.392;9.950;2022-08-19T14:33:09;11.87;;;10.97;;
579;SDS011;276;48.392;9.950;2022-08-19T14:35:38;11.90;;;11.00;;
579;SDS011;276;48.392;9.950;2022-08-19T14:38:14;11.77;;;10.90;;
579;SDS011;276;48.392;9.950;2022-08-19T14:40:41;12.23;;;11.43;;
579;SDS011;276;48.392;9.950;2022-08-19T14:43:07;11.80;;;10.90;;
579;SDS011;276;48.392;9.950;2022-08-19T14:45:34;12.03;;;11.13;;
579;SDS011;276;48.392;9.950;2022-08-19T14:48:01;11.57;;;10.67;;
579;SDS011;276;48.392;9.950;2022-08-19T14:50:30;11.17;;;10.40;;
579;SDS011;276;48.392;9.950;2022-08-19T14:52:59;11.07;;;10.30;;
579;SDS011;276;48.392;9.950;2022-08-19T14:55:31;12.53;;;11.57;;
579;SDS011;276;48.392;9.950;2022-08-19T14:58:00;11.93;;;11.03;;
579;SDS011;276;48.392;9.950;2022-08-19T15:00:26;12.50;;;11.60;;
579;SDS011;276;48.392;9.950;2022-08-19T15:02:54;12.63;;;11.53;;
579;SDS011;276;48.392;9.950;2022-08-19T15:05:20;12.40;;;11.40;;
579;SDS011;276;48.392;9.950;2022-08-19T15:07:46;10.83;;;10.13;;
579;SDS011;276;48.392;9.950;2022-08-19T15:10:12;11.30;;;10.50;;
579;SDS011;276;48.392;9.950;2022-08-19T15:12:39;13.30;;;12.30;;
579;SDS011;276;48.392;9.950;2022-08-19T15:15:09;13.87;;;12.77;;
579;SDS011;276;48.392;9.950;2022-08-19T15:17:40;12.30;;;11.40;;
579;SDS011;276;48.392;9.950;2022-08-19T15:20:07;12.63;;;11.80;;
579;SDS011;276;48.392;9.950;2022-08-19T15:22:33;13.67;;;12.67;;
579;SDS011;276;48.392;9.950;2022-08-19T15:25:00;11.97;;;11.17;;
579;SDS011;276;48.392;9.950;2022-08-19T15:27:28;12.03;;;11.23;;
579;SDS011;276;48.392;9.950;2022-08-19T15:29:54;13.93;;;12.80;;
579;SDS011;276;48.392;9.950;2022-08-19T15:32:21;13.40;;;12.43;;
579;SDS011;276;48.392;9.950;2022-08-19T15:34:48;15.47;;;14.27;;
579;SDS011;276;48.392;9.950;2022-08-19T15:37:14;13.83;;;12.73;;
579;SDS011;276;48.392;9.950;2022-08-19T15:39:39;12.60;;;11.70;;
579;SDS011;276;48.392;9.950;2022-08-19T15:42:05;12.70;;;11.70;;